sensor_id;sensor_type;location;lat;lon;timestamp;P1;durP1;ratioP1;P2;durP2;ratioP2
43626;SDS011;29217;52.586;13.442;2022-10-28T00:00:15;10.48;;;5.55;;
43626;SDS011;29217;52.586;13.442;2022-10-28T00:02:41;9.23;;;5.60;;
43626;SDS011;29217;52.586;13.442;2022-10-28T00:05:07;13.95;;;6.28;;
43626;SDS011;29217;52.586;13.442;2022-10-28T00:07:33;14.23;;;5.75;;
43626;SDS011;29217;52.586;13.442;2022-10-28T00:09:58;11.85;;;6.35;;
43626;SDS011;29217;52.586;13.442;2022-10-28T00:12:24;11.25;;;5.75;;
43626;SDS011;29217;52.586;13.442;2022-10-28T00:14:49;9.77;;;5.55;;
43626;SDS011;29217;52.586;13.442;2022-10-28T00:17:15;12.90;;;6.53;;
43626;SDS011;29217;52.586;13.442;2022-10-28T00:19:41;11.30;;;5.45;;
43626;SDS011;29217;52.586;13.442;2022-10-28T00:22:06;13.05;;;6.47;;
43626;SDS011;29217;52.586;13.442;2022-10-28T00:24:32;9.52;;;5.57;;
43626;SDS011;29217;52.586;13.442;2022-10-28T00:26:57;9.75;;;5.97;;
43626;SDS011;29217;52.586;13.442;2022-10-28T00:29:23;8.95;;;5.60;;
43626;SDS011;29217;52.586;13.442;2022-10-28T00:31:49;11.13;;;5.63;;
43626;SDS011;29217;52.586;13.442;2022-10-28T00:34:17;9.40;;;5.32;;
43626;SDS011;29217;52.586;13.442;2022-10-28T00:36:44;7.57;;;5.03;;
43626;SDS011;29217;52.586;13.442;2022-10-28T00:39:11;9.13;;;5.78;;
43626;SDS011;29217;52.586;13.442;2022-10-28T00:41:46;8.43;;;5.80;;
43626;SDS011;29217;52.586;13.442;2022-10-28T00:49:53;11.77;;;5.72;;
43626;SDS011;29217;52.586;13.442;2022-10-28T00:52:24;10.80;;;5.47;;
43626;SDS011;29217;52.586;13.442;2022-10-28T00:54:53;11.82;;;5.97;;
43626;SDS011;29217;52.586;13.442;2022-10-28T00:57:21;9.82;;;5.53;;
43626;SDS011;29217;52.586;13.442;2022-10-28T00:59:52;11.18;;;6.03;;
43626;SDS011;29217;52.586;13.442;2022-10-28T01:02:18;12.10;;;5.93;;
43626;SDS011;29217;52.586;13.442;2022-10-28T01:04:45;8.68;;;5.88;;
43626;SDS011;29217;52.586;13.442;2022-10-28T01:07:11;9.82;;;5.65;;
43626;SDS011;29217;52.586;13.442;2022-10-28T01:09:37;9.30;;;5.75;;
43626;SDS011;29217;52.586;13.442;2022-10-28T01:12:10;8.32;;;5.53;;
43626;SDS011;29217;52.586;13.442;2022-10-28T01:15:17;9.02;;;5.68;;
43626;SDS011;29217;52.586;13.442;2022-10-28T01:17:54;8.25;;;5.45;;
43626;SDS011;29217;52.586;13.442;2022-10-28T01:23:47;9.73;;;5.35;;
43626;SDS011;29217;52.586;13.442;2022-10-28T01:37:56;11.45;;;5.22;;
43626;SDS011;29217;52.586;13.442;2022-10-28T01:40:28;11.13;;;5.97;;
43626;SDS011;29217;52.586;13.442;2022-10-28T01:43:15;14.15;;;6.13;;
43626;SDS011;29217;52.586;13.442;2022-10-28T01:46:11;11.52;;;6.35;;
43626;SDS011;29217;52.586;13.442;2022-10-28T01:48:47;9.52;;;5.82;;
43626;SDS011;29217;52.586;13.442;2022-10-28T01:51:20;11.25;;;5.57;;
43626;SDS011;29217;52.586;13.442;2022-10-28T01:53:54;9.93;;;5.80;;
43626;SDS011;29217;52.586;13.442;2022-10-28T01:56:26;13.77;;;6.10;;
43626;SDS011;29217;52.586;13.442;2022-10-28T01:58:55;10.10;;;6.35;;
43626;SDS011;29217;52.586;13.442;2022-10-28T02:01:24;11.45;;;6.10;;
43626;SDS011;29217;52.586;13.442;2022-10-28T02:03:51;9.45;;;5.40;;
43626;SDS011;29217;52.586;13.442;2022-10-28T02:06:18;9.25;;;5.53;;
43626;SDS011;29217;52.586;13.442;2022-10-28T02:11:52;11.20;;;5.90;;
43626;SDS011;29217;52.586;13.442;2022-10-28T02:20:18;10.00;;;6.28;;
43626;SDS011;29217;52.586;13.442;2022-10-28T02:23:03;11.52;;;6.10;;
43626;SDS011;29217;52.586;13.442;2022-10-28T02:25:51;11.85;;;5.53;;
43626;SDS011;29217;52.586;13.442;2022-10-28T02:28:30;9.63;;;5.32;;
43626;SDS011;29217;52.586;13.442;2022-10-28T02:31:05;7.05;;;5.03;;
43626;SDS011;29217;52.586;13.442;2022-10-28T02:33:56;7.70;;;4.97;;
43626;SDS011;29217;52.586;13.442;2022-10-28T02:36:27;8.63;;;5.28;;
43626;SDS011;29217;52.586;13.442;2022-10-28T02:38:56;7.97;;;5.20;;
43626;SDS011;29217;52.586;13.442;2022-10-28T02:44:25;7.78;;;5.07;;
43626;SDS011;29217;52.586;13.442;2022-10-28T02:46:56;7.78;;;4.95;;
43626;SDS011;29217;52.586;13.442;2022-10-28T02:49:25;8.40;;;5.43;;
43626;SDS011;29217;52.586;13.442;2022-10-28T02:51:59;7.72;;;4.78;;
43626;SDS011;29217;52.586;13.442;2022-10-28T02:54:30;9.30;;;5.40;;
43626;SDS011;29217;52.586;13.442;2022-10-28T02:57:11;7.78;;;4.97;;
43626;SDS011;29217;52.586;13.442;2022-10-28T02:59:39;9.02;;;5.32;;
43626;SDS011;29217;52.586;13.442;2022-10-28T03:02:05;12.23;;;5.50;;
43626;SDS011;29217;52.586;13.442;2022-10-28T03:04:31;9.93;;;4.97;;
43626;SDS011;29217;52.586;13.442;2022-10-28T03:06:57;7.05;;;4.88;;
43626;SDS011;29217;52.586;13.442;2022-10-28T03:09:22;8.63;;;5.20;;
43626;SDS011;29217;52.586;13.442;2022-10-28T03:11:48;13.27;;;5.53;;
43626;SDS011;29217;52.586;13.442;2022-10-28T03:14:13;11.27;;;5.55;;
43626;SDS011;29217;52.586;13.442;2022-10-28T03:16:39;9.05;;;5.32;;
43626;SDS011;29217;52.586;13.442;2022-10-28T03:19:04;9.05;;;5.75;;
43626;SDS011;29217;52.586;13.442;2022-10-28T03:21:30;9.38;;;5.75;;
43626;SDS011;29217;52.586;13.442;2022-10-28T03:23:55;8.77;;;6.03;;
43626;SDS011;29217;52.586;13.442;2022-10-28T03:26:21;10.13;;;5.95;;
43626;SDS011;29217;52.586;13.442;2022-10-28T03:28:46;10.73;;;5.40;;
43626;SDS011;29217;52.586;13.442;2022-10-28T03:31:12;8.60;;;5.20;;
43626;SDS011;29217;52.586;13.442;2022-10-28T03:33:39;10.48;;;5.43;;
43626;SDS011;29217;52.586;13.442;2022-10-28T03:36:04;8.25;;;5.18;;
43626;SDS011;29217;52.586;13.442;2022-10-28T03:38:30;10.13;;;5.10;;
43626;SDS011;29217;52.586;13.442;2022-10-28T03:40:56;10.07;;;5.53;;
43626;SDS011;29217;52.586;13.442;2022-10-28T03:43:21;6.93;;;4.95;;
43626;SDS011;29217;52.586;13.442;2022-10-28T03:45:47;9.82;;;5.07;;
43626;SDS011;29217;52.586;13.442;2022-10-28T03:48:12;10.10;;;5.53;;
43626;SDS011;29217;52.586;13.442;2022-10-28T03:50:38;8.40;;;5.18;;
43626;SDS011;29217;52.586;13.442;2022-10-28T03:53:04;11.27;;;5.00;;
43626;SDS011;29217;52.586;13.442;2022-10-28T03:55:29;9.70;;;4.82;;
43626;SDS011;29217;52.586;13.442;2022-10-28T03:57:55;12.88;;;5.15;;
43626;SDS011;29217;52.586;13.442;2022-10-28T04:00:20;8.75;;;5.30;;
43626;SDS011;29217;52.586;13.442;2022-10-28T04:02:49;14.35;;;5.25;;
43626;SDS011;29217;52.586;13.442;2022-10-28T04:05:15;8.07;;;5.50;;
43626;SDS011;29217;52.586;13.442;2022-10-28T04:07:41;13.10;;;5.20;;
43626;SDS011;29217;52.586;13.442;2022-10-28T04:10:07;9.80;;;5.10;;
43626;SDS011;29217;52.586;13.442;2022-10-28T04:12:33;8.13;;;5.00;;
43626;SDS011;29217;52.586;13.442;2022-10-28T04:14:58;11.20;;;5.15;;
43626;SDS011;29217;52.586;13.442;2022-10-28T04:17:24;9.88;;;5.47;;
43626;SDS011;29217;52.586;13.442;2022-10-28T04:19:49;10.93;;;5.47;;
43626;SDS011;29217;52.586;13.442;2022-10-28T04:22:15;11.65;;;6.60;;
43626;SDS011;29217;52.586;13.442;2022-10-28T04:24:40;10.25;;;5.57;;
43626;SDS011;29217;52.586;13.442;2022-10-28T04:27:06;10.48;;;5.97;;
43626;SDS011;29217;52.586;13.442;2022-10-28T04:29:31;9.52;;;5.60;;
43626;SDS011;29217;52.586;13.442;2022-10-28T04:31:57;9.82;;;5.80;;
43626;SDS011;29217;52.586;13.442;2022-10-28T04:34:23;8.88;;;5.97;;
43626;SDS011;29217;52.586;13.442;2022-10-28T04:36:49;12.05;;;6.15;;
43626;SDS011;29217;52.586;13.442;2022-10-28T04:39:14;10.60;;;6.15;;
43626;SDS011;29217;52.586;13.442;2022-10-28T04:41:40;10.48;;;5.57;;
43626;SDS011;29217;52.586;13.442;2022-10-28T04:44:05;10.00;;;5.93;;
43626;SDS011;29217;52.586;13.442;2022-10-28T04:46:31;8.02;;;5.13;;
43626;SDS011;29217;52.586;13.442;2022-10-28T04:48:56;10.95;;;5.32;;
43626;SDS011;29217;52.586;13.442;2022-10-28T04:51:22;13.38;;;5.72;;
43626;SDS011;29217;52.586;13.442;2022-10-28T04:53:47;9.90;;;5.63;;
43626;SDS011;29217;52.586;13.442;2022-10-28T04:56:13;12.57;;;5.18;;
43626;SDS011;29217;52.586;13.442;2022-10-28T04:58:39;11.10;;;5.78;;
43626;SDS011;29217;52.586;13.442;2022-10-28T05:01:05;11.13;;;5.20;;
43626;SDS011;29217;52.586;13.442;2022-10-28T05:03:31;8.07;;;5.50;;
43626;SDS011;29217;52.586;13.442;2022-10-28T05:05:57;10.90;;;6.03;;
43626;SDS011;29217;52.586;13.442;2022-10-28T05:08:23;10.13;;;5.80;;
43626;SDS011;29217;52.586;13.442;2022-10-28T05:10:48;10.77;;;5.40;;
43626;SDS011;29217;52.586;13.442;2022-10-28T05:13:15;14.32;;;5.28;;
43626;SDS011;29217;52.586;13.442;2022-10-28T05:15:41;11.10;;;5.18;;
43626;SDS011;29217;52.586;13.442;2022-10-28T05:18:07;9.70;;;4.75;;
43626;SDS011;29217;52.586;13.442;2022-10-28T05:20:32;8.48;;;4.40;;
43626;SDS011;29217;52.586;13.442;2022-10-28T05:22:58;11.15;;;5.05;;
43626;SDS011;29217;52.586;13.442;2022-10-28T05:25:23;11.55;;;5.25;;
43626;SDS011;29217;52.586;13.442;2022-10-28T05:27:49;10.13;;;4.82;;
43626;SDS011;29217;52.586;13.442;2022-10-28T05:30:15;12.45;;;5.28;;
43626;SDS011;29217;52.586;13.442;2022-10-28T05:32:42;9.88;;;5.07;;
43626;SDS011;29217;52.586;13.442;2022-10-28T05:35:08;14.30;;;6.10;;
43626;SDS011;29217;52.586;13.442;2022-10-28T05:37:34;10.63;;;5.60;;
43626;SDS011;29217;52.586;13.442;2022-10-28T05:40:00;26.08;;;5.78;;
43626;SDS011;29217;52.586;13.442;2022-10-28T05:42:25;13.85;;;5.80;;
43626;SDS011;29217;52.586;13.442;2022-10-28T05:44:51;16.75;;;5.68;;
43626;SDS011;29217;52.586;13.442;2022-10-28T05:47:17;10.07;;;5.72;;
43626;SDS011;29217;52.586;13.442;2022-10-28T05:49:42;18.77;;;6.65;;
43626;SDS011;29217;52.586;13.442;2022-10-28T05:52:08;8.68;;;5.50;;
43626;SDS011;29217;52.586;13.442;2022-10-28T05:54:33;16.35;;;5.70;;
43626;SDS011;29217;52.586;13.442;2022-10-28T05:56:59;14.40;;;5.47;;
43626;SDS011;29217;52.586;13.442;2022-10-28T05:59:24;13.10;;;6.45;;
43626;SDS011;29217;52.586;13.442;2022-10-28T06:01:50;16.23;;;6.90;;
43626;SDS011;29217;52.586;13.442;2022-10-28T06:04:15;11.35;;;6.72;;
43626;SDS011;29217;52.586;13.442;2022-10-28T06:06:40;12.75;;;6.65;;
43626;SDS011;29217;52.586;13.442;2022-10-28T06:09:06;15.27;;;6.65;;
43626;SDS011;29217;52.586;13.442;2022-10-28T06:11:33;16.52;;;6.72;;
43626;SDS011;29217;52.586;13.442;2022-10-28T06:13:58;13.93;;;7.38;;
43626;SDS011;29217;52.586;13.442;2022-10-28T06:16:24;15.73;;;8.05;;
43626;SDS011;29217;52.586;13.442;2022-10-28T06:18:49;21.45;;;10.05;;
43626;SDS011;29217;52.586;13.442;2022-10-28T06:21:15;23.00;;;8.98;;
43626;SDS011;29217;52.586;13.442;2022-10-28T06:23:40;24.83;;;10.05;;
43626;SDS011;29217;52.586;13.442;2022-10-28T06:26:06;19.90;;;9.23;;
43626;SDS011;29217;52.586;13.442;2022-10-28T06:28:33;21.92;;;9.57;;
43626;SDS011;29217;52.586;13.442;2022-10-28T06:31:05;17.10;;;8.63;;
43626;SDS011;29217;52.586;13.442;2022-10-28T06:33:32;20.83;;;9.38;;
43626;SDS011;29217;52.586;13.442;2022-10-28T06:35:59;26.77;;;9.45;;
43626;SDS011;29217;52.586;13.442;2022-10-28T06:38:25;16.00;;;8.32;;
43626;SDS011;29217;52.586;13.442;2022-10-28T06:40:52;15.50;;;7.53;;
43626;SDS011;29217;52.586;13.442;2022-10-28T06:43:17;12.98;;;7.40;;
43626;SDS011;29217;52.586;13.442;2022-10-28T06:45:43;12.38;;;7.10;;
43626;SDS011;29217;52.586;13.442;2022-10-28T06:48:10;17.55;;;6.88;;
43626;SDS011;29217;52.586;13.442;2022-10-28T06:50:36;13.82;;;7.15;;
43626;SDS011;29217;52.586;13.442;2022-10-28T06:53:02;12.27;;;7.07;;
43626;SDS011;29217;52.586;13.442;2022-10-28T06:55:28;19.60;;;8.27;;
43626;SDS011;29217;52.586;13.442;2022-10-28T06:57:57;14.38;;;7.10;;
43626;SDS011;29217;52.586;13.442;2022-10-28T07:00:24;11.23;;;7.20;;
43626;SDS011;29217;52.586;13.442;2022-10-28T07:02:51;13.73;;;7.50;;
43626;SDS011;29217;52.586;13.442;2022-10-28T07:05:17;13.85;;;7.45;;
43626;SDS011;29217;52.586;13.442;2022-10-28T07:07:42;20.98;;;7.38;;
43626;SDS011;29217;52.586;13.442;2022-10-28T07:10:08;14.88;;;6.75;;
43626;SDS011;29217;52.586;13.442;2022-10-28T07:12:33;10.57;;;6.68;;
43626;SDS011;29217;52.586;13.442;2022-10-28T07:14:59;12.30;;;6.32;;
43626;SDS011;29217;52.586;13.442;2022-10-28T07:17:25;16.98;;;8.40;;
43626;SDS011;29217;52.586;13.442;2022-10-28T07:19:50;17.42;;;7.82;;
43626;SDS011;29217;52.586;13.442;2022-10-28T07:22:16;14.48;;;7.82;;
43626;SDS011;29217;52.586;13.442;2022-10-28T07:24:41;24.10;;;8.27;;
43626;SDS011;29217;52.586;13.442;2022-10-28T07:27:07;20.30;;;8.88;;
43626;SDS011;29217;52.586;13.442;2022-10-28T07:29:33;21.27;;;10.52;;
43626;SDS011;29217;52.586;13.442;2022-10-28T07:31:59;18.55;;;9.50;;
43626;SDS011;29217;52.586;13.442;2022-10-28T07:34:25;20.30;;;10.13;;
43626;SDS011;29217;52.586;13.442;2022-10-28T07:36:51;16.55;;;9.18;;
43626;SDS011;29217;52.586;13.442;2022-10-28T07:39:18;21.95;;;10.25;;
43626;SDS011;29217;52.586;13.442;2022-10-28T07:41:43;22.52;;;9.35;;
43626;SDS011;29217;52.586;13.442;2022-10-28T07:44:09;15.43;;;8.63;;
43626;SDS011;29217;52.586;13.442;2022-10-28T07:46:35;15.00;;;8.18;;
43626;SDS011;29217;52.586;13.442;2022-10-28T07:49:01;12.52;;;7.50;;
43626;SDS011;29217;52.586;13.442;2022-10-28T07:51:27;13.13;;;6.78;;
43626;SDS011;29217;52.586;13.442;2022-10-28T07:53:54;14.23;;;7.00;;
43626;SDS011;29217;52.586;13.442;2022-10-28T07:56:20;14.23;;;6.10;;
43626;SDS011;29217;52.586;13.442;2022-10-28T07:58:46;16.83;;;6.90;;
43626;SDS011;29217;52.586;13.442;2022-10-28T08:01:12;11.73;;;6.50;;
43626;SDS011;29217;52.586;13.442;2022-10-28T08:03:40;14.18;;;6.35;;
43626;SDS011;29217;52.586;13.442;2022-10-28T08:06:13;9.93;;;6.28;;
43626;SDS011;29217;52.586;13.442;2022-10-28T08:08:41;11.75;;;6.47;;
43626;SDS011;29217;52.586;13.442;2022-10-28T08:11:14;12.00;;;5.88;;
43626;SDS011;29217;52.586;13.442;2022-10-28T08:13:43;12.80;;;5.85;;
43626;SDS011;29217;52.586;13.442;2022-10-28T08:16:08;16.60;;;5.90;;
43626;SDS011;29217;52.586;13.442;2022-10-28T08:18:35;16.55;;;5.40;;
43626;SDS011;29217;52.586;13.442;2022-10-28T08:21:02;10.75;;;5.20;;
43626;SDS011;29217;52.586;13.442;2022-10-28T08:23:28;13.75;;;5.60;;
43626;SDS011;29217;52.586;13.442;2022-10-28T08:25:54;9.57;;;4.82;;
43626;SDS011;29217;52.586;13.442;2022-10-28T08:28:20;9.45;;;5.20;;
43626;SDS011;29217;52.586;13.442;2022-10-28T08:30:46;12.93;;;4.55;;
43626;SDS011;29217;52.586;13.442;2022-10-28T08:33:11;10.23;;;5.35;;
43626;SDS011;29217;52.586;13.442;2022-10-28T08:35:38;12.57;;;4.70;;
43626;SDS011;29217;52.586;13.442;2022-10-28T08:38:03;8.70;;;4.80;;
43626;SDS011;29217;52.586;13.442;2022-10-28T08:40:52;11.80;;;5.00;;
43626;SDS011;29217;52.586;13.442;2022-10-28T08:44:04;13.43;;;4.45;;
43626;SDS011;29217;52.586;13.442;2022-10-28T08:46:57;9.48;;;4.80;;
43626;SDS011;29217;52.586;13.442;2022-10-28T08:49:32;13.75;;;4.70;;
43626;SDS011;29217;52.586;13.442;2022-10-28T08:55:19;12.05;;;4.78;;
43626;SDS011;29217;52.586;13.442;2022-10-28T08:57:53;9.30;;;4.82;;
43626;SDS011;29217;52.586;13.442;2022-10-28T09:00:27;10.35;;;5.38;;
43626;SDS011;29217;52.586;13.442;2022-10-28T09:03:02;14.32;;;5.65;;
43626;SDS011;29217;52.586;13.442;2022-10-28T09:05:38;9.73;;;5.68;;
43626;SDS011;29217;52.586;13.442;2022-10-28T09:08:11;8.60;;;4.90;;
43626;SDS011;29217;52.586;13.442;2022-10-28T09:10:55;13.25;;;5.35;;
43626;SDS011;29217;52.586;13.442;2022-10-28T09:13:31;7.15;;;4.35;;
43626;SDS011;29217;52.586;13.442;2022-10-28T09:16:33;12.32;;;4.95;;
43626;SDS011;29217;52.586;13.442;2022-10-28T09:19:19;10.05;;;4.90;;
43626;SDS011;29217;52.586;13.442;2022-10-28T09:24:50;8.55;;;4.10;;
43626;SDS011;29217;52.586;13.442;2022-10-28T09:35:53;11.52;;;4.57;;
43626;SDS011;29217;52.586;13.442;2022-10-28T09:38:24;9.35;;;4.30;;
43626;SDS011;29217;52.586;13.442;2022-10-28T09:41:00;11.32;;;4.05;;
43626;SDS011;29217;52.586;13.442;2022-10-28T09:43:37;10.40;;;4.47;;
43626;SDS011;29217;52.586;13.442;2022-10-28T09:46:13;9.00;;;4.22;;
43626;SDS011;29217;52.586;13.442;2022-10-28T09:48:42;16.33;;;3.85;;
43626;SDS011;29217;52.586;13.442;2022-10-28T09:51:16;13.65;;;3.80;;
43626;SDS011;29217;52.586;13.442;2022-10-28T09:53:52;6.47;;;3.58;;
43626;SDS011;29217;52.586;13.442;2022-10-28T09:56:22;9.25;;;4.13;;
43626;SDS011;29217;52.586;13.442;2022-10-28T09:58:48;10.25;;;3.88;;
43626;SDS011;29217;52.586;13.442;2022-10-28T10:01:15;8.05;;;3.35;;
43626;SDS011;29217;52.586;13.442;2022-10-28T10:03:42;9.65;;;3.67;;
43626;SDS011;29217;52.586;13.442;2022-10-28T10:06:12;7.50;;;3.17;;
43626;SDS011;29217;52.586;13.442;2022-10-28T10:08:43;10.77;;;3.72;;
43626;SDS011;29217;52.586;13.442;2022-10-28T10:11:17;10.18;;;3.15;;
43626;SDS011;29217;52.586;13.442;2022-10-28T10:13:50;9.77;;;3.55;;
43626;SDS011;29217;52.586;13.442;2022-10-28T10:16:38;9.13;;;3.67;;
43626;SDS011;29217;52.586;13.442;2022-10-28T10:19:09;9.45;;;3.28;;
43626;SDS011;29217;52.586;13.442;2022-10-28T10:21:39;6.53;;;3.20;;
43626;SDS011;29217;52.586;13.442;2022-10-28T10:26:59;7.15;;;3.20;;
43626;SDS011;29217;52.586;13.442;2022-10-28T10:29:44;9.73;;;3.28;;
43626;SDS011;29217;52.586;13.442;2022-10-28T10:34:43;7.47;;;3.60;;
43626;SDS011;29217;52.586;13.442;2022-10-28T10:37:17;6.38;;;3.17;;
43626;SDS011;29217;52.586;13.442;2022-10-28T10:39:45;7.15;;;3.25;;
43626;SDS011;29217;52.586;13.442;2022-10-28T10:42:28;12.23;;;3.58;;
43626;SDS011;29217;52.586;13.442;2022-10-28T10:44:58;8.90;;;2.92;;
43626;SDS011;29217;52.586;13.442;2022-10-28T10:47:26;8.30;;;3.03;;
43626;SDS011;29217;52.586;13.442;2022-10-28T10:49:52;6.35;;;3.22;;
43626;SDS011;29217;52.586;13.442;2022-10-28T10:52:46;5.97;;;2.65;;
43626;SDS011;29217;52.586;13.442;2022-10-28T10:55:18;7.88;;;3.10;;
43626;SDS011;29217;52.586;13.442;2022-10-28T10:57:47;7.20;;;3.30;;
43626;SDS011;29217;52.586;13.442;2022-10-28T11:00:16;10.27;;;2.72;;
43626;SDS011;29217;52.586;13.442;2022-10-28T11:02:44;6.32;;;2.60;;
43626;SDS011;29217;52.586;13.442;2022-10-28T11:05:11;7.47;;;3.15;;
43626;SDS011;29217;52.586;13.442;2022-10-28T11:07:45;5.10;;;2.55;;
43626;SDS011;29217;52.586;13.442;2022-10-28T11:10:26;10.63;;;2.58;;
43626;SDS011;29217;52.586;13.442;2022-10-28T11:12:57;5.95;;;2.80;;
43626;SDS011;29217;52.586;13.442;2022-10-28T11:15:27;8.60;;;2.53;;
43626;SDS011;29217;52.586;13.442;2022-10-28T11:20:31;6.60;;;2.55;;
43626;SDS011;29217;52.586;13.442;2022-10-28T11:26:09;7.85;;;2.40;;
43626;SDS011;29217;52.586;13.442;2022-10-28T11:31:30;5.00;;;2.28;;
43626;SDS011;29217;52.586;13.442;2022-10-28T11:37:17;7.15;;;2.75;;
43626;SDS011;29217;52.586;13.442;2022-10-28T11:48:00;8.95;;;2.92;;
43626;SDS011;29217;52.586;13.442;2022-10-28T11:58:47;7.05;;;2.67;;
43626;SDS011;29217;52.586;13.442;2022-10-28T12:04:41;6.13;;;2.13;;
43626;SDS011;29217;52.586;13.442;2022-10-28T12:15:44;7.80;;;1.90;;
43626;SDS011;29217;52.586;13.442;2022-10-28T12:23:44;12.85;;;2.40;;
43626;SDS011;29217;52.586;13.442;2022-10-28T12:26:12;10.57;;;2.58;;
43626;SDS011;29217;52.586;13.442;2022-10-28T12:31:54;6.18;;;2.42;;
43626;SDS011;29217;52.586;13.442;2022-10-28T12:34:27;7.22;;;2.60;;
43626;SDS011;29217;52.586;13.442;2022-10-28T12:37:05;5.55;;;2.17;;
43626;SDS011;29217;52.586;13.442;2022-10-28T12:42:32;8.15;;;2.40;;
43626;SDS011;29217;52.586;13.442;2022-10-28T12:45:02;8.15;;;2.40;;
43626;SDS011;29217;52.586;13.442;2022-10-28T12:47:35;5.57;;;2.65;;
43626;SDS011;29217;52.586;13.442;2022-10-28T12:50:09;8.57;;;2.90;;
43626;SDS011;29217;52.586;13.442;2022-10-28T12:53:17;5.50;;;1.95;;
43626;SDS011;29217;52.586;13.442;2022-10-28T12:55:57;7.55;;;2.58;;
43626;SDS011;29217;52.586;13.442;2022-10-28T13:00:54;9.77;;;2.17;;
43626;SDS011;29217;52.586;13.442;2022-10-28T13:03:24;11.88;;;2.78;;
43626;SDS011;29217;52.586;13.442;2022-10-28T13:08:40;8.15;;;2.40;;
43626;SDS011;29217;52.586;13.442;2022-10-28T13:16:49;7.28;;;2.53;;
43626;SDS011;29217;52.586;13.442;2022-10-28T13:19:42;6.75;;;2.40;;
43626;SDS011;29217;52.586;13.442;2022-10-28T13:28:24;8.45;;;2.40;;
43626;SDS011;29217;52.586;13.442;2022-10-28T13:30:56;7.20;;;2.78;;
43626;SDS011;29217;52.586;13.442;2022-10-28T13:33:24;6.93;;;2.25;;
43626;SDS011;29217;52.586;13.442;2022-10-28T13:35:52;7.32;;;2.00;;
43626;SDS011;29217;52.586;13.442;2022-10-28T13:38:20;8.90;;;3.03;;
43626;SDS011;29217;52.586;13.442;2022-10-28T13:46:12;14.77;;;2.85;;
43626;SDS011;29217;52.586;13.442;2022-10-28T13:49:20;9.88;;;2.50;;
43626;SDS011;29217;52.586;13.442;2022-10-28T13:51:48;6.00;;;2.47;;
43626;SDS011;29217;52.586;13.442;2022-10-28T13:54:22;10.85;;;2.92;;
43626;SDS011;29217;52.586;13.442;2022-10-28T13:56:50;10.82;;;2.40;;
43626;SDS011;29217;52.586;13.442;2022-10-28T13:59:17;6.70;;;2.33;;
43626;SDS011;29217;52.586;13.442;2022-10-28T14:01:51;9.52;;;2.53;;
43626;SDS011;29217;52.586;13.442;2022-10-28T14:04:23;9.88;;;2.60;;
43626;SDS011;29217;52.586;13.442;2022-10-28T14:09:34;8.15;;;2.30;;
43626;SDS011;29217;52.586;13.442;2022-10-28T14:12:02;5.68;;;2.53;;
43626;SDS011;29217;52.586;13.442;2022-10-28T14:17:33;5.88;;;1.80;;
43626;SDS011;29217;52.586;13.442;2022-10-28T14:20:38;7.05;;;2.38;;
43626;SDS011;29217;52.586;13.442;2022-10-28T14:41:48;8.93;;;2.97;;
43626;SDS011;29217;52.586;13.442;2022-10-28T14:47:30;8.02;;;2.50;;
43626;SDS011;29217;52.586;13.442;2022-10-28T14:50:04;13.68;;;2.78;;
43626;SDS011;29217;52.586;13.442;2022-10-28T14:52:43;7.03;;;2.60;;
43626;SDS011;29217;52.586;13.442;2022-10-28T14:55:29;4.00;;;2.40;;
43626;SDS011;29217;52.586;13.442;2022-10-28T14:58:16;22.30;;;3.95;;
43626;SDS011;29217;52.586;13.442;2022-10-28T15:01:06;13.60;;;2.83;;
43626;SDS011;29217;52.586;13.442;2022-10-28T15:03:41;11.68;;;2.97;;
43626;SDS011;29217;52.586;13.442;2022-10-28T15:06:26;8.50;;;2.92;;
43626;SDS011;29217;52.586;13.442;2022-10-28T15:08:54;8.82;;;3.10;;
43626;SDS011;29217;52.586;13.442;2022-10-28T15:11:26;11.02;;;3.42;;
43626;SDS011;29217;52.586;13.442;2022-10-28T15:13:52;11.15;;;2.90;;
43626;SDS011;29217;52.586;13.442;2022-10-28T15:16:21;7.60;;;2.70;;
43626;SDS011;29217;52.586;13.442;2022-10-28T15:18:49;7.82;;;2.97;;
43626;SDS011;29217;52.586;13.442;2022-10-28T15:21:17;7.72;;;2.95;;
43626;SDS011;29217;52.586;13.442;2022-10-28T15:23:57;9.00;;;3.08;;
43626;SDS011;29217;52.586;13.442;2022-10-28T15:26:26;9.38;;;3.63;;
43626;SDS011;29217;52.586;13.442;2022-10-28T15:28:51;12.25;;;3.45;;
43626;SDS011;29217;52.586;13.442;2022-10-28T15:31:17;13.40;;;3.78;;
43626;SDS011;29217;52.586;13.442;2022-10-28T15:33:43;7.22;;;3.20;;
43626;SDS011;29217;52.586;13.442;2022-10-28T15:38:42;9.80;;;3.25;;
43626;SDS011;29217;52.586;13.442;2022-10-28T15:43:52;10.50;;;3.03;;
43626;SDS011;29217;52.586;13.442;2022-10-28T15:46:19;6.57;;;3.08;;
43626;SDS011;29217;52.586;13.442;2022-10-28T15:48:50;13.80;;;3.47;;
43626;SDS011;29217;52.586;13.442;2022-10-28T15:51:20;10.30;;;4.28;;
43626;SDS011;29217;52.586;13.442;2022-10-28T15:53:46;9.93;;;4.65;;
43626;SDS011;29217;52.586;13.442;2022-10-28T15:58:42;6.18;;;3.05;;
43626;SDS011;29217;52.586;13.442;2022-10-28T16:03:58;11.77;;;3.72;;
43626;SDS011;29217;52.586;13.442;2022-10-28T16:06:25;12.10;;;4.63;;
43626;SDS011;29217;52.586;13.442;2022-10-28T16:08:59;10.05;;;3.50;;
43626;SDS011;29217;52.586;13.442;2022-10-28T16:11:48;9.48;;;4.00;;
43626;SDS011;29217;52.586;13.442;2022-10-28T16:14:38;13.40;;;4.63;;
43626;SDS011;29217;52.586;13.442;2022-10-28T16:17:17;13.02;;;5.07;;
43626;SDS011;29217;52.586;13.442;2022-10-28T16:19:51;11.60;;;4.90;;
43626;SDS011;29217;52.586;13.442;2022-10-28T16:22:23;9.98;;;5.00;;
43626;SDS011;29217;52.586;13.442;2022-10-28T16:24:50;15.07;;;6.43;;
43626;SDS011;29217;52.586;13.442;2022-10-28T16:27:18;14.50;;;5.38;;
43626;SDS011;29217;52.586;13.442;2022-10-28T16:29:51;9.20;;;5.07;;
43626;SDS011;29217;52.586;13.442;2022-10-28T16:32:19;12.40;;;4.50;;
43626;SDS011;29217;52.586;13.442;2022-10-28T16:34:51;8.38;;;4.28;;
43626;SDS011;29217;52.586;13.442;2022-10-28T16:37:21;10.32;;;4.68;;
43626;SDS011;29217;52.586;13.442;2022-10-28T16:39:49;14.20;;;4.50;;
43626;SDS011;29217;52.586;13.442;2022-10-28T16:42:15;19.60;;;5.15;;
43626;SDS011;29217;52.586;13.442;2022-10-28T16:44:41;14.00;;;4.75;;
43626;SDS011;29217;52.586;13.442;2022-10-28T16:47:17;13.00;;;5.20;;
43626;SDS011;29217;52.586;13.442;2022-10-28T16:49:44;13.50;;;5.38;;
43626;SDS011;29217;52.586;13.442;2022-10-28T16:52:19;20.30;;;5.30;;
43626;SDS011;29217;52.586;13.442;2022-10-28T16:54:46;14.88;;;5.32;;
43626;SDS011;29217;52.586;13.442;2022-10-28T16:57:12;15.25;;;6.32;;
43626;SDS011;29217;52.586;13.442;2022-10-28T16:59:38;14.85;;;6.72;;
43626;SDS011;29217;52.586;13.442;2022-10-28T17:02:08;18.90;;;7.53;;
43626;SDS011;29217;52.586;13.442;2022-10-28T17:04:46;16.30;;;6.57;;
43626;SDS011;29217;52.586;13.442;2022-10-28T17:07:11;16.10;;;6.88;;
43626;SDS011;29217;52.586;13.442;2022-10-28T17:09:40;15.70;;;7.00;;
43626;SDS011;29217;52.586;13.442;2022-10-28T17:12:06;13.70;;;6.07;;
43626;SDS011;29217;52.586;13.442;2022-10-28T17:14:39;13.18;;;5.70;;
43626;SDS011;29217;52.586;13.442;2022-10-28T17:17:05;17.48;;;6.63;;
43626;SDS011;29217;52.586;13.442;2022-10-28T17:19:30;15.95;;;6.88;;
43626;SDS011;29217;52.586;13.442;2022-10-28T17:21:56;13.73;;;6.43;;
43626;SDS011;29217;52.586;13.442;2022-10-28T17:24:21;14.52;;;6.10;;
43626;SDS011;29217;52.586;13.442;2022-10-28T17:26:47;17.45;;;7.65;;